Terminal Aerodrome Forecast
Issued by NWS

Home | Current Version | Previous Version | Graphics & Text | Print | Product List | Glossary On
Versions: 1 2 3 4 5 6 7 8 9 10 11 12 13 14 15 16 17 18 19 20 21 22 23
612
FTUS43 KIWX 111721
TAFSBN
TAF
KSBN 111721Z 1118/1218 18010KT P6SM OVC060
     FM120200 28005KT P6SM VCSH OVC020
     FM120500 32018G30KT 1 1/2SM -SHSN BLSN OVC010
     FM121200 32018G30KT 1SM -SHSN BLSN OVC007=

USA.gov is the U.S. government's official web portal to all federal, state and local government web resources and services.